AirNav   TITAN Aviation Fuels
 
 1586 users online  

87I Yazoo County Airport
Yazoo City, Mississippi, USA

GOING TO YAZOO CITY?


FAA INFORMATION EFFECTIVE 15 JULY 2021

Location

FAA Identifier: 87I
Lat/Long: 32-53-00.6000N 090-27-50.4000W
32-53.010000N 090-27.840000W
32.8835000,-90.4640000
(estimated)
Elevation: 105.3 ft. / 32.1 m (surveyed)
Variation: 00E (2010)
From city: 4 miles NW of YAZOO CITY, MS
Time zone: UTC -5 (UTC -6 during Standard Time)
Zip code: 39194

Airport Operations

Airport use: Open to the public
Activation date: 11/1989
Control tower: no
ARTCC: MEMPHIS CENTER
FSS: GREENWOOD FLIGHT SERVICE STATION
NOTAMs facility: GWO (NOTAM-D service available)
Attendance: UNATNDD
Wind indicator: lighted
Segmented circle: yes
Lights: MIRL RWY 17/35 PRESET LOW INTST DUSK - 2200; AFT 2200 ACTVT OR INCR INTST - CTAF.
Beacon: white-green (lighted land airport)
Operates sunset to sunrise.

Airport Communications

CTAF/UNICOM: 122.8
  • APCH/DEP SVC PRVDD BY MEMPHIS ARTCC ON FREQS 132.5/259.1 (JACKSON RCAG).

Nearby radio navigation aids

VOR radial/distance  VOR name  Freq  Var
MHZr327/32.6MAGNOLIA VORTAC113.2001W
SQSr192/36.1SIDON VORTAC114.7003E

Airport Services

Fuel available: 100LL JET-A1+
Parking: tiedowns

Runway Information

Runway 17/35

Dimensions: 5001 x 100 ft. / 1524 x 30 m
Surface: asphalt, in fair condition
Weight bearing capacity: 
Single wheel: 30.0
Double tandem: 64.0
Runway edge lights: medium intensity
RUNWAY 17  RUNWAY 35
Latitude: 32-53.419198N32-52.599020N
Longitude: 090-27.889163W090-27.789462W
Elevation: 104.2 ft.104.2 ft.
Traffic pattern: leftleft
Runway heading: 174354
Markings: nonprecision, in good conditionnonprecision, in good condition
Visual slope indicator: 2-light PAPI on left (3.00 degrees glide path)2-light PAPI on left (3.00 degrees glide path)
Touchdown point: yes, no lightsyes, no lights
Obstructions: 80 ft. trees, 3000 ft. from runway, 250 ft. left of centerline, 35:1 slope to clear53 ft. trees, 1590 ft. from runway, 26:1 slope to clear

Airport Ownership and Management from official FAA records

Ownership: Publicly-owned
Owner: COUNTY OF YAZOO
P.O.BOX 172
YAZOO CITY, MS 39194
Phone 662-746-1273
Manager: MICHAEL MCCAIN
51 AIRWAYS ROAD
YAZOO CITY, MS 39194
Phone 662-572-1392
MICHAEL.MCCAIN@YAZOOCOUNTYMS.GOV

Airport Operational Statistics

Aircraft based on the field: 11
Single engine airplanes: 8
Multi engine airplanes: 1
Helicopters: 2
    
Aircraft operations: avg 24/day *
86% local general aviation
12% transient general aviation
1% military
* for 12-month period ending 04 February 2021

Additional Remarks

FOR CD CTC MEMPHIS ARTCC AT 901-368-8453/8449.
CREDIT CARD FUEL AVBL H24.

Instrument Procedures

NOTE: All procedures below are presented as PDF files. If you need a reader for these files, you should download the free Adobe Reader.

NOT FOR NAVIGATION. Please procure official charts for flight.
FAA instrument procedures published for use from 15 July 2021 at 0901Z to 12 August 2021 at 0900z.

 
IAPs - Instrument Approach Procedures
RNAV (GPS) RWY 17   download (193KB)
RNAV (GPS) RWY 35   download (178KB)
NOTE: Special Take-Off Minimums/Departure Procedures apply   download (116KB)

Other nearby airports with instrument procedures:

19M - C A Moore Airport (26 nm NE)
KMBO - Bruce Campbell Field Airport (32 nm SE)
KJVW - John Bell Williams Airport (35 nm S)
KHKS - Hawkins Field Airport (35 nm S)
KIDL - Indianola Municipal Airport (38 nm N)
 
Loc | Ops | Rwys | IFR | FBO | Links
Com | Nav | Svcs | Stats | Notes
Area around 87I (Yazoo County Airport)
 
Road maps at: MapQuest Bing Google
 
Aerial photo
WARNING: Photo may not be current or correct
Aerial photo of 87I (Yazoo County Airport)
Photo by Bart Barrack
Photo taken 18-Nov-2008
from 9500 feet MSL

Do you have a better or more recent aerial photo of Yazoo County Airport that you would like to share? If so, please send us your photo.

 
Sectional chart

 
Airport distance calculator
Flying to Yazoo County Airport? Find the distance to fly.

From to 87I

Sunrise and sunset
Times for 26-Jul-2021
 Local
(UTC-5)
 Zulu
(UTC)
Morning civil twilight05:4510:45
Sunrise06:1211:12
Sunset20:0401:04
Evening civil twilight20:3201:32

Current date and time
Zulu (UTC)  26-Jul-2021 15:38:25
Local (UTC-5)  26-Jul-2021 10:38:25
 
METAR
KMBO 
32nm SE 
261515Z AUTO 00000KT 9SM CLR 30/25 A2999 RMK AO2
KJVW 
35nm S 
261515Z AUTO 00000KT 10SM CLR 31/31 A2998 RMK AO2
KHKS 
35nm S 
261453Z VRB03KT 10SM CLR 30/26 A2999 RMK AO2 SLP146 T03000261 50003
KJAN 
39nm SE 
261454Z 00000KT 10SM SCT120 31/24 A2999 RMK AO2 SLP149 T03110239 50005
KGWO 
42nm NE 
261453Z AUTO 00000KT 10SM CLR 32/26 A2997 RMK AO2 SLP146 T03220256 50002
KTVR 
43nm SW 
261453Z AUTO 00000KT 10SM CLR 32/26 A2997 RMK AO2 SLP156 T03220256 51005
KGLH 
45nm NW 
261453Z VRB03KT 10SM CLR 32/26 A2997 RMK AO2 SLP151 T03170261 51005
KVKS 
46nm SW 
261515Z AUTO VRB04KT 8SM CLR 31/28 A2996 RMK A01
TAF
KHKS 
35nm S 
261122Z 2612/2712 00000KT P6SM SKC FM261800 23004KT P6SM SHRA SCT040 SCT080 FM270000 VRB03KT P6SM FEW050 SCT100
KJAN 
39nm SE 
261122Z 2612/2712 13003KT P6SM SKC FM261800 23004KT P6SM SHRA SCT040 SCT080 FM270000 VRB03KT P6SM FEW050 SCT100
KGWO 
42nm NE 
261122Z 2612/2712 00000KT P6SM FEW090 FM261800 19004KT P6SM VCTS FEW050CB FM270000 00000KT P6SM FEW050 SCT100 FM270900 00000KT 4SM BR BKN250
NOTAMs
Click for the latest NOTAMs
NOTAMs are issued by the DoD/FAA and will open in a separate window not controlled by AirNav.

 

 
 

FBO, Fuel Providers, and Aircraft Ground Support

  
 Business Name 
 
 Contact 
 
 Services / Description 
 
Fuel Prices
 
Comments
  
Yazoo County Airport 662-571-1392
no information available

If you are affiliated with Yazoo County Airport and would like to show here your services, contact info, web link, logo, and more, click here
100LL Jet A
SS $4.19 $3.55 
 Updated 01-Apr-2021
 
   write
SS=Self service
Update Fuel Prices
 

Would you like to see your business listed on this page?

 If your business provides an interesting product or service to pilots, flight crews, aircraft, or users of the Yazoo County Airport, you should consider listing it here.  To start the listing process, click on the button below
 
Add a business
 

Other Pages about Yazoo County Airport

www.yazoocounty.net/yazoo-county-airport
 
Update a link
 
Copyright © AirNav, LLC. All rights reserved. Privacy Policy  Contact